sensor_id;sensor_type;location;lat;lon;timestamp;P1;durP1;ratioP1;P2;durP2;ratioP2
323;SDS011;149;51.094;17.002;2024-03-02T00:01:42;16.13;;;10.45;;
323;SDS011;149;51.094;17.002;2024-03-02T00:04:10;12.25;;;9.80;;
323;SDS011;149;51.094;17.002;2024-03-02T00:06:40;12.45;;;10.93;;
323;SDS011;149;51.094;17.002;2024-03-02T00:09:07;8.60;;;7.80;;
323;SDS011;149;51.094;17.002;2024-03-02T00:11:39;8.95;;;8.02;;
323;SDS011;149;51.094;17.002;2024-03-02T00:14:06;9.73;;;8.20;;
323;SDS011;149;51.094;17.002;2024-03-02T00:16:35;9.27;;;7.25;;
323;SDS011;149;51.094;17.002;2024-03-02T00:19:07;9.27;;;8.65;;
323;SDS011;149;51.094;17.002;2024-03-02T00:21:36;8.60;;;7.82;;
323;SDS011;149;51.094;17.002;2024-03-02T00:24:17;11.38;;;10.60;;
323;SDS011;149;51.094;17.002;2024-03-02T00:27:08;14.18;;;13.30;;
323;SDS011;149;51.094;17.002;2024-03-02T00:29:41;9.27;;;8.40;;
323;SDS011;149;51.094;17.002;2024-03-02T00:32:12;6.85;;;6.22;;
323;SDS011;149;51.094;17.002;2024-03-02T00:34:42;13.93;;;12.77;;
323;SDS011;149;51.094;17.002;2024-03-02T00:37:12;9.48;;;8.57;;
323;SDS011;149;51.094;17.002;2024-03-02T00:39:41;7.57;;;6.85;;
323;SDS011;149;51.094;17.002;2024-03-02T00:42:08;11.65;;;10.88;;
323;SDS011;149;51.094;17.002;2024-03-02T00:44:37;9.30;;;8.48;;
323;SDS011;149;51.094;17.002;2024-03-02T00:47:04;11.45;;;10.35;;
323;SDS011;149;51.094;17.002;2024-03-02T00:49:32;17.42;;;12.75;;
323;SDS011;149;51.094;17.002;2024-03-02T00:51:59;8.27;;;7.72;;
323;SDS011;149;51.094;17.002;2024-03-02T00:54:28;9.65;;;7.55;;
323;SDS011;149;51.094;17.002;2024-03-02T00:56:57;8.88;;;8.18;;
323;SDS011;149;51.094;17.002;2024-03-02T00:59:25;9.57;;;8.95;;
323;SDS011;149;51.094;17.002;2024-03-02T01:01:52;13.57;;;10.50;;
323;SDS011;149;51.094;17.002;2024-03-02T01:04:20;9.20;;;8.43;;
323;SDS011;149;51.094;17.002;2024-03-02T01:06:49;11.30;;;10.30;;
323;SDS011;149;51.094;17.002;2024-03-02T01:09:17;9.00;;;8.43;;
323;SDS011;149;51.094;17.002;2024-03-02T01:11:46;10.40;;;8.60;;
323;SDS011;149;51.094;17.002;2024-03-02T01:14:17;11.85;;;10.35;;
323;SDS011;149;51.094;17.002;2024-03-02T01:16:45;11.57;;;9.77;;
323;SDS011;149;51.094;17.002;2024-03-02T01:19:15;10.32;;;9.30;;
323;SDS011;149;51.094;17.002;2024-03-02T01:21:46;11.70;;;9.93;;
323;SDS011;149;51.094;17.002;2024-03-02T01:24:13;13.90;;;12.57;;
323;SDS011;149;51.094;17.002;2024-03-02T01:26:42;15.95;;;14.73;;
323;SDS011;149;51.094;17.002;2024-03-02T01:29:09;8.30;;;7.70;;
323;SDS011;149;51.094;17.002;2024-03-02T01:31:38;8.52;;;7.80;;
323;SDS011;149;51.094;17.002;2024-03-02T01:34:08;9.07;;;8.32;;
323;SDS011;149;51.094;17.002;2024-03-02T01:36:42;9.68;;;8.98;;
323;SDS011;149;51.094;17.002;2024-03-02T01:39:10;13.75;;;12.88;;
323;SDS011;149;51.094;17.002;2024-03-02T01:41:38;13.13;;;12.10;;
323;SDS011;149;51.094;17.002;2024-03-02T01:44:05;11.07;;;10.27;;
323;SDS011;149;51.094;17.002;2024-03-02T01:46:34;15.38;;;13.43;;
323;SDS011;149;51.094;17.002;2024-03-02T01:49:01;4.40;;;4.18;;
323;SDS011;149;51.094;17.002;2024-03-02T01:51:28;10.50;;;9.40;;
323;SDS011;149;51.094;17.002;2024-03-02T01:53:58;8.70;;;8.10;;
323;SDS011;149;51.094;17.002;2024-03-02T01:56:25;11.98;;;10.98;;
323;SDS011;149;51.094;17.002;2024-03-02T01:58:52;7.13;;;6.68;;
323;SDS011;149;51.094;17.002;2024-03-02T02:01:19;7.70;;;7.10;;
323;SDS011;149;51.094;17.002;2024-03-02T02:03:46;16.40;;;14.77;;
323;SDS011;149;51.094;17.002;2024-03-02T02:06:13;12.70;;;11.70;;
323;SDS011;149;51.094;17.002;2024-03-02T02:08:41;8.13;;;6.07;;
323;SDS011;149;51.094;17.002;2024-03-02T02:11:09;16.17;;;14.73;;
323;SDS011;149;51.094;17.002;2024-03-02T02:13:36;9.35;;;8.68;;
323;SDS011;149;51.094;17.002;2024-03-02T02:16:04;12.50;;;11.50;;
323;SDS011;149;51.094;17.002;2024-03-02T02:18:37;10.30;;;9.70;;
323;SDS011;149;51.094;17.002;2024-03-02T02:21:04;8.65;;;7.82;;
323;SDS011;149;51.094;17.002;2024-03-02T02:23:31;11.45;;;10.55;;
323;SDS011;149;51.094;17.002;2024-03-02T02:26:00;9.32;;;8.73;;
323;SDS011;149;51.094;17.002;2024-03-02T02:28:33;9.70;;;8.95;;
323;SDS011;149;51.094;17.002;2024-03-02T02:31:01;9.57;;;8.73;;
323;SDS011;149;51.094;17.002;2024-03-02T02:33:29;9.27;;;8.10;;
323;SDS011;149;51.094;17.002;2024-03-02T02:35:57;11.57;;;10.45;;
323;SDS011;149;51.094;17.002;2024-03-02T02:38:28;10.07;;;9.38;;
323;SDS011;149;51.094;17.002;2024-03-02T02:40:55;10.38;;;9.55;;
323;SDS011;149;51.094;17.002;2024-03-02T02:43:23;14.23;;;12.40;;
323;SDS011;149;51.094;17.002;2024-03-02T02:45:50;8.63;;;8.20;;
323;SDS011;149;51.094;17.002;2024-03-02T02:48:20;13.48;;;12.45;;
323;SDS011;149;51.094;17.002;2024-03-02T02:50:47;9.30;;;8.65;;
323;SDS011;149;51.094;17.002;2024-03-02T02:53:15;10.93;;;10.15;;
323;SDS011;149;51.094;17.002;2024-03-02T02:55:43;10.52;;;9.60;;
323;SDS011;149;51.094;17.002;2024-03-02T02:58:10;7.18;;;6.78;;
323;SDS011;149;51.094;17.002;2024-03-02T03:00:38;7.40;;;6.88;;
323;SDS011;149;51.094;17.002;2024-03-02T03:03:06;12.15;;;10.73;;
323;SDS011;149;51.094;17.002;2024-03-02T03:05:33;9.88;;;5.22;;
323;SDS011;149;51.094;17.002;2024-03-02T03:08:01;6.35;;;5.95;;
323;SDS011;149;51.094;17.002;2024-03-02T03:10:40;8.82;;;8.10;;
323;SDS011;149;51.094;17.002;2024-03-02T03:13:07;11.93;;;11.25;;
323;SDS011;149;51.094;17.002;2024-03-02T03:15:36;11.10;;;10.32;;
323;SDS011;149;51.094;17.002;2024-03-02T03:18:04;8.70;;;7.95;;
323;SDS011;149;51.094;17.002;2024-03-02T03:20:31;12.23;;;11.23;;
323;SDS011;149;51.094;17.002;2024-03-02T03:22:58;8.57;;;7.97;;
323;SDS011;149;51.094;17.002;2024-03-02T03:25:27;19.30;;;9.65;;
323;SDS011;149;51.094;17.002;2024-03-02T03:27:54;18.25;;;9.68;;
323;SDS011;149;51.094;17.002;2024-03-02T03:30:21;12.50;;;11.30;;
323;SDS011;149;51.094;17.002;2024-03-02T03:32:48;10.23;;;9.40;;
323;SDS011;149;51.094;17.002;2024-03-02T03:35:16;20.50;;;13.05;;
323;SDS011;149;51.094;17.002;2024-03-02T03:37:45;12.77;;;11.45;;
323;SDS011;149;51.094;17.002;2024-03-02T03:40:14;10.18;;;9.32;;
323;SDS011;149;51.094;17.002;2024-03-02T03:42:41;13.80;;;8.77;;
323;SDS011;149;51.094;17.002;2024-03-02T03:45:10;12.38;;;10.63;;
323;SDS011;149;51.094;17.002;2024-03-02T03:47:38;14.18;;;9.70;;
323;SDS011;149;51.094;17.002;2024-03-02T03:50:05;10.30;;;9.25;;
323;SDS011;149;51.094;17.002;2024-03-02T03:52:35;6.43;;;5.95;;
323;SDS011;149;51.094;17.002;2024-03-02T03:55:02;12.13;;;9.27;;
323;SDS011;149;51.094;17.002;2024-03-02T03:57:33;11.25;;;10.45;;
323;SDS011;149;51.094;17.002;2024-03-02T04:00:00;6.85;;;5.80;;
323;SDS011;149;51.094;17.002;2024-03-02T04:02:27;14.55;;;13.50;;
323;SDS011;149;51.094;17.002;2024-03-02T04:04:54;9.65;;;9.10;;
323;SDS011;149;51.094;17.002;2024-03-02T04:07:23;4.40;;;4.20;;
323;SDS011;149;51.094;17.002;2024-03-02T04:09:51;8.98;;;8.20;;
323;SDS011;149;51.094;17.002;2024-03-02T04:12:20;8.90;;;8.10;;
323;SDS011;149;51.094;17.002;2024-03-02T04:14:54;10.60;;;9.80;;
323;SDS011;149;51.094;17.002;2024-03-02T04:17:21;10.02;;;9.25;;
323;SDS011;149;51.094;17.002;2024-03-02T04:19:49;7.88;;;7.47;;
323;SDS011;149;51.094;17.002;2024-03-02T04:22:17;7.28;;;6.70;;
323;SDS011;149;51.094;17.002;2024-03-02T04:24:50;8.07;;;7.47;;
323;SDS011;149;51.094;17.002;2024-03-02T04:27:18;10.18;;;9.27;;
323;SDS011;149;51.094;17.002;2024-03-02T04:29:46;4.07;;;3.78;;
323;SDS011;149;51.094;17.002;2024-03-02T04:32:13;14.82;;;9.98;;
323;SDS011;149;51.094;17.002;2024-03-02T04:34:40;6.88;;;6.35;;
323;SDS011;149;51.094;17.002;2024-03-02T04:37:07;5.50;;;4.95;;
323;SDS011;149;51.094;17.002;2024-03-02T04:39:36;9.73;;;8.88;;
323;SDS011;149;51.094;17.002;2024-03-02T04:42:03;11.85;;;10.82;;
323;SDS011;149;51.094;17.002;2024-03-02T04:44:30;11.25;;;9.15;;
323;SDS011;149;51.094;17.002;2024-03-02T04:46:57;5.40;;;5.00;;
323;SDS011;149;51.094;17.002;2024-03-02T04:49:24;9.10;;;8.30;;
323;SDS011;149;51.094;17.002;2024-03-02T04:51:52;9.55;;;8.75;;
323;SDS011;149;51.094;17.002;2024-03-02T04:54:24;7.78;;;7.38;;
323;SDS011;149;51.094;17.002;2024-03-02T04:56:52;6.78;;;6.40;;
323;SDS011;149;51.094;17.002;2024-03-02T04:59:21;5.88;;;5.47;;
323;SDS011;149;51.094;17.002;2024-03-02T05:01:49;8.25;;;7.60;;
323;SDS011;149;51.094;17.002;2024-03-02T05:04:16;10.07;;;9.40;;
323;SDS011;149;51.094;17.002;2024-03-02T05:06:44;9.05;;;5.53;;
323;SDS011;149;51.094;17.002;2024-03-02T05:09:17;10.48;;;9.50;;
323;SDS011;149;51.094;17.002;2024-03-02T05:11:48;9.60;;;8.90;;
323;SDS011;149;51.094;17.002;2024-03-02T05:14:48;6.70;;;6.30;;
323;SDS011;149;51.094;17.002;2024-03-02T05:17:19;8.35;;;7.60;;
323;SDS011;149;51.094;17.002;2024-03-02T05:19:46;13.32;;;12.07;;
323;SDS011;149;51.094;17.002;2024-03-02T05:22:14;10.38;;;9.75;;
323;SDS011;149;51.094;17.002;2024-03-02T05:24:43;6.45;;;5.78;;
323;SDS011;149;51.094;17.002;2024-03-02T05:27:12;7.18;;;6.72;;
323;SDS011;149;51.094;17.002;2024-03-02T05:29:42;7.63;;;7.13;;
323;SDS011;149;51.094;17.002;2024-03-02T05:32:10;5.50;;;5.10;;
323;SDS011;149;51.094;17.002;2024-03-02T05:34:37;11.77;;;10.93;;
323;SDS011;149;51.094;17.002;2024-03-02T05:37:09;7.50;;;7.00;;
323;SDS011;149;51.094;17.002;2024-03-02T05:39:37;10.00;;;9.40;;
323;SDS011;149;51.094;17.002;2024-03-02T05:42:05;9.70;;;8.73;;
323;SDS011;149;51.094;17.002;2024-03-02T05:44:36;10.82;;;9.95;;
323;SDS011;149;51.094;17.002;2024-03-02T05:47:03;6.43;;;6.07;;
323;SDS011;149;51.094;17.002;2024-03-02T05:49:31;9.15;;;6.82;;
323;SDS011;149;51.094;17.002;2024-03-02T05:52:10;14.25;;;13.30;;
323;SDS011;149;51.094;17.002;2024-03-02T05:54:38;11.13;;;10.20;;
323;SDS011;149;51.094;17.002;2024-03-02T05:57:10;7.70;;;7.20;;
323;SDS011;149;51.094;17.002;2024-03-02T06:00:01;7.82;;;6.95;;
323;SDS011;149;51.094;17.002;2024-03-02T06:02:31;7.78;;;7.18;;
323;SDS011;149;51.094;17.002;2024-03-02T06:04:58;9.05;;;8.52;;
323;SDS011;149;51.094;17.002;2024-03-02T06:07:28;12.82;;;11.73;;
323;SDS011;149;51.094;17.002;2024-03-02T06:09:55;7.28;;;6.88;;
323;SDS011;149;51.094;17.002;2024-03-02T06:12:26;8.32;;;7.78;;
323;SDS011;149;51.094;17.002;2024-03-02T06:14:55;13.52;;;7.97;;
323;SDS011;149;51.094;17.002;2024-03-02T06:17:21;6.30;;;5.78;;
323;SDS011;149;51.094;17.002;2024-03-02T06:19:49;9.43;;;8.43;;
323;SDS011;149;51.094;17.002;2024-03-02T06:22:16;11.52;;;9.85;;
323;SDS011;149;51.094;17.002;2024-03-02T06:24:43;7.60;;;5.85;;
323;SDS011;149;51.094;17.002;2024-03-02T06:27:10;7.05;;;6.57;;
323;SDS011;149;51.094;17.002;2024-03-02T06:29:36;9.27;;;8.40;;
323;SDS011;149;51.094;17.002;2024-03-02T06:32:04;12.00;;;8.88;;
323;SDS011;149;51.094;17.002;2024-03-02T06:34:31;9.27;;;7.53;;
323;SDS011;149;51.094;17.002;2024-03-02T06:36:57;10.52;;;9.75;;
323;SDS011;149;51.094;17.002;2024-03-02T06:39:24;6.57;;;5.60;;
323;SDS011;149;51.094;17.002;2024-03-02T06:41:52;8.18;;;7.50;;
323;SDS011;149;51.094;17.002;2024-03-02T06:44:19;20.88;;;7.63;;
323;SDS011;149;51.094;17.002;2024-03-02T06:46:47;8.05;;;7.63;;
323;SDS011;149;51.094;17.002;2024-03-02T06:49:14;4.68;;;4.38;;
323;SDS011;149;51.094;17.002;2024-03-02T06:51:44;9.32;;;8.75;;
323;SDS011;149;51.094;17.002;2024-03-02T06:54:11;6.43;;;5.95;;
323;SDS011;149;51.094;17.002;2024-03-02T06:56:38;7.03;;;6.28;;
323;SDS011;149;51.094;17.002;2024-03-02T06:59:05;7.90;;;6.47;;
323;SDS011;149;51.094;17.002;2024-03-02T07:01:32;9.45;;;7.40;;
323;SDS011;149;51.094;17.002;2024-03-02T07:03:59;5.18;;;4.93;;
323;SDS011;149;51.094;17.002;2024-03-02T07:06:26;9.32;;;8.80;;
323;SDS011;149;51.094;17.002;2024-03-02T07:08:54;14.65;;;5.90;;
323;SDS011;149;51.094;17.002;2024-03-02T07:11:20;7.95;;;6.60;;
323;SDS011;149;51.094;17.002;2024-03-02T07:13:48;2.35;;;2.25;;
323;SDS011;149;51.094;17.002;2024-03-02T07:16:15;12.07;;;9.32;;
323;SDS011;149;51.094;17.002;2024-03-02T07:18:55;5.75;;;5.55;;
323;SDS011;149;51.094;17.002;2024-03-02T07:21:23;4.90;;;4.50;;
323;SDS011;149;51.094;17.002;2024-03-02T07:23:53;6.10;;;5.55;;
323;SDS011;149;51.094;17.002;2024-03-02T07:26:20;3.90;;;3.70;;
323;SDS011;149;51.094;17.002;2024-03-02T07:28:51;9.10;;;8.48;;
323;SDS011;149;51.094;17.002;2024-03-02T07:31:19;3.42;;;3.22;;
323;SDS011;149;51.094;17.002;2024-03-02T07:33:56;4.78;;;4.55;;
323;SDS011;149;51.094;17.002;2024-03-02T07:36:28;4.55;;;4.20;;
323;SDS011;149;51.094;17.002;2024-03-02T07:38:55;5.50;;;5.07;;
323;SDS011;149;51.094;17.002;2024-03-02T07:41:22;6.13;;;5.83;;
323;SDS011;149;51.094;17.002;2024-03-02T07:43:49;6.53;;;5.77;;
323;SDS011;149;51.094;17.002;2024-03-02T07:46:16;5.80;;;5.50;;
323;SDS011;149;51.094;17.002;2024-03-02T07:48:44;8.67;;;6.50;;
323;SDS011;149;51.094;17.002;2024-03-02T07:51:11;8.20;;;7.50;;
323;SDS011;149;51.094;17.002;2024-03-02T07:53:38;5.87;;;5.47;;
323;SDS011;149;51.094;17.002;2024-03-02T07:56:04;4.33;;;4.13;;
323;SDS011;149;51.094;17.002;2024-03-02T07:58:32;3.97;;;3.77;;
323;SDS011;149;51.094;17.002;2024-03-02T08:01:03;9.10;;;7.90;;
323;SDS011;149;51.094;17.002;2024-03-02T08:03:31;9.43;;;8.63;;
323;SDS011;149;51.094;17.002;2024-03-02T08:06:01;6.20;;;5.63;;
323;SDS011;149;51.094;17.002;2024-03-02T08:08:28;3.77;;;3.50;;
323;SDS011;149;51.094;17.002;2024-03-02T08:10:55;10.37;;;6.87;;
323;SDS011;149;51.094;17.002;2024-03-02T08:13:24;8.73;;;7.30;;
323;SDS011;149;51.094;17.002;2024-03-02T08:15:51;5.23;;;4.93;;
323;SDS011;149;51.094;17.002;2024-03-02T08:18:18;6.00;;;5.67;;
323;SDS011;149;51.094;17.002;2024-03-02T08:20:45;7.53;;;7.03;;
323;SDS011;149;51.094;17.002;2024-03-02T08:23:15;3.73;;;3.57;;
323;SDS011;149;51.094;17.002;2024-03-02T08:25:42;3.00;;;2.90;;
323;SDS011;149;51.094;17.002;2024-03-02T08:28:09;6.00;;;5.70;;
323;SDS011;149;51.094;17.002;2024-03-02T08:30:36;1.33;;;1.33;;
323;SDS011;149;51.094;17.002;2024-03-02T08:33:03;4.03;;;3.83;;
323;SDS011;149;51.094;17.002;2024-03-02T08:35:30;2.30;;;2.20;;
323;SDS011;149;51.094;17.002;2024-03-02T08:38:02;4.37;;;4.07;;
323;SDS011;149;51.094;17.002;2024-03-02T08:40:30;5.30;;;5.00;;
323;SDS011;149;51.094;17.002;2024-03-02T08:42:57;6.40;;;6.00;;
323;SDS011;149;51.094;17.002;2024-03-02T08:45:24;6.23;;;4.47;;
323;SDS011;149;51.094;17.002;2024-03-02T08:47:51;5.10;;;4.70;;
323;SDS011;149;51.094;17.002;2024-03-02T08:50:19;5.17;;;4.67;;
323;SDS011;149;51.094;17.002;2024-03-02T08:52:46;4.30;;;4.10;;
323;SDS011;149;51.094;17.002;2024-03-02T08:55:13;4.77;;;4.17;;
323;SDS011;149;51.094;17.002;2024-03-02T08:57:40;4.60;;;4.30;;
323;SDS011;149;51.094;17.002;2024-03-02T09:00:08;4.73;;;4.33;;
323;SDS011;149;51.094;17.002;2024-03-02T09:02:35;5.27;;;4.97;;
323;SDS011;149;51.094;17.002;2024-03-02T09:05:03;3.80;;;3.60;;
323;SDS011;149;51.094;17.002;2024-03-02T09:07:31;2.50;;;2.40;;
323;SDS011;149;51.094;17.002;2024-03-02T09:09:58;5.93;;;5.07;;
323;SDS011;149;51.094;17.002;2024-03-02T09:12:25;3.20;;;3.00;;
323;SDS011;149;51.094;17.002;2024-03-02T09:14:52;3.47;;;3.33;;
323;SDS011;149;51.094;17.002;2024-03-02T09:17:19;5.23;;;4.97;;
323;SDS011;149;51.094;17.002;2024-03-02T09:19:46;6.00;;;5.60;;
323;SDS011;149;51.094;17.002;2024-03-02T09:22:13;5.93;;;5.60;;
323;SDS011;149;51.094;17.002;2024-03-02T09:24:41;9.10;;;7.47;;
323;SDS011;149;51.094;17.002;2024-03-02T09:27:08;2.60;;;2.50;;
323;SDS011;149;51.094;17.002;2024-03-02T09:29:35;6.47;;;6.10;;
323;SDS011;149;51.094;17.002;2024-03-02T09:32:02;5.60;;;5.30;;
323;SDS011;149;51.094;17.002;2024-03-02T09:34:29;6.33;;;5.87;;
323;SDS011;149;51.094;17.002;2024-03-02T09:36:56;4.00;;;3.80;;
323;SDS011;149;51.094;17.002;2024-03-02T09:39:23;6.60;;;6.07;;
323;SDS011;149;51.094;17.002;2024-03-02T09:41:53;4.23;;;4.03;;
323;SDS011;149;51.094;17.002;2024-03-02T09:44:21;2.87;;;2.70;;
323;SDS011;149;51.094;17.002;2024-03-02T09:46:48;9.80;;;5.13;;
323;SDS011;149;51.094;17.002;2024-03-02T09:49:16;5.13;;;4.90;;
323;SDS011;149;51.094;17.002;2024-03-02T09:51:47;5.03;;;3.13;;
323;SDS011;149;51.094;17.002;2024-03-02T09:54:15;8.00;;;7.20;;
323;SDS011;149;51.094;17.002;2024-03-02T09:56:48;3.43;;;3.23;;
323;SDS011;149;51.094;17.002;2024-03-02T09:59:17;5.87;;;5.57;;
323;SDS011;149;51.094;17.002;2024-03-02T10:01:56;6.33;;;5.80;;
323;SDS011;149;51.094;17.002;2024-03-02T10:04:28;5.83;;;5.47;;
323;SDS011;149;51.094;17.002;2024-03-02T10:07:10;5.40;;;5.10;;
323;SDS011;149;51.094;17.002;2024-03-02T10:09:41;4.67;;;4.27;;
323;SDS011;149;51.094;17.002;2024-03-02T10:12:10;2.77;;;2.67;;
323;SDS011;149;51.094;17.002;2024-03-02T10:14:39;4.97;;;4.53;;
323;SDS011;149;51.094;17.002;2024-03-02T10:17:07;5.97;;;3.63;;
323;SDS011;149;51.094;17.002;2024-03-02T10:19:35;6.97;;;4.90;;
323;SDS011;149;51.094;17.002;2024-03-02T10:22:04;4.10;;;3.77;;
323;SDS011;149;51.094;17.002;2024-03-02T10:24:36;3.53;;;3.13;;
323;SDS011;149;51.094;17.002;2024-03-02T10:30:06;4.53;;;4.30;;
323;SDS011;149;51.094;17.002;2024-03-02T10:32:37;4.40;;;4.03;;
323;SDS011;149;51.094;17.002;2024-03-02T10:35:04;3.60;;;3.40;;
323;SDS011;149;51.094;17.002;2024-03-02T10:37:32;2.80;;;2.70;;
323;SDS011;149;51.094;17.002;2024-03-02T10:40:04;6.03;;;5.53;;
323;SDS011;149;51.094;17.002;2024-03-02T10:42:31;4.03;;;3.83;;
323;SDS011;149;51.094;17.002;2024-03-02T10:44:59;5.33;;;4.10;;
323;SDS011;149;51.094;17.002;2024-03-02T10:47:26;4.20;;;3.07;;
323;SDS011;149;51.094;17.002;2024-03-02T10:49:56;7.83;;;6.63;;
323;SDS011;149;51.094;17.002;2024-03-02T10:52:25;3.40;;;3.20;;
323;SDS011;149;51.094;17.002;2024-03-02T10:54:52;3.63;;;3.47;;
323;SDS011;149;51.094;17.002;2024-03-02T10:57:20;6.27;;;5.03;;
323;SDS011;149;51.094;17.002;2024-03-02T10:59:52;4.37;;;4.07;;
323;SDS011;149;51.094;17.002;2024-03-02T11:02:23;3.73;;;3.53;;
323;SDS011;149;51.094;17.002;2024-03-02T11:04:54;4.80;;;4.47;;
323;SDS011;149;51.094;17.002;2024-03-02T11:07:22;5.47;;;5.13;;
323;SDS011;149;51.094;17.002;2024-03-02T11:09:54;2.17;;;2.07;;
323;SDS011;149;51.094;17.002;2024-03-02T11:12:29;2.57;;;2.43;;
323;SDS011;149;51.094;17.002;2024-03-02T11:14:58;2.90;;;2.70;;
323;SDS011;149;51.094;17.002;2024-03-02T11:17:26;1.60;;;1.60;;
323;SDS011;149;51.094;17.002;2024-03-02T11:19:54;2.87;;;2.77;;
323;SDS011;149;51.094;17.002;2024-03-02T11:22:22;6.67;;;5.03;;
323;SDS011;149;51.094;17.002;2024-03-02T11:24:49;4.40;;;4.10;;
323;SDS011;149;51.094;17.002;2024-03-02T11:30:48;3.60;;;3.30;;
323;SDS011;149;51.094;17.002;2024-03-02T11:33:06;4.17;;;3.97;;
323;SDS011;149;51.094;17.002;2024-03-02T11:35:35;5.60;;;4.07;;
323;SDS011;149;51.094;17.002;2024-03-02T11:38:03;2.33;;;2.23;;
323;SDS011;149;51.094;17.002;2024-03-02T11:40:30;7.13;;;5.90;;
323;SDS011;149;51.094;17.002;2024-03-02T11:43:00;3.30;;;3.10;;
323;SDS011;149;51.094;17.002;2024-03-02T11:45:28;20.47;;;7.67;;
323;SDS011;149;51.094;17.002;2024-03-02T11:47:58;3.13;;;3.03;;
323;SDS011;149;51.094;17.002;2024-03-02T11:50:42;2.13;;;2.03;;
323;SDS011;149;51.094;17.002;2024-03-02T11:53:13;3.10;;;3.00;;
323;SDS011;149;51.094;17.002;2024-03-02T11:55:41;3.50;;;3.30;;
323;SDS011;149;51.094;17.002;2024-03-02T11:58:14;3.53;;;3.23;;
323;SDS011;149;51.094;17.002;2024-03-02T12:00:47;3.43;;;2.77;;
323;SDS011;149;51.094;17.002;2024-03-02T12:03:18;3.03;;;2.83;;
323;SDS011;149;51.094;17.002;2024-03-02T12:05:49;3.03;;;2.43;;
323;SDS011;149;51.094;17.002;2024-03-02T12:08:17;2.50;;;2.30;;
323;SDS011;149;51.094;17.002;2024-03-02T12:10:55;2.80;;;2.60;;
323;SDS011;149;51.094;17.002;2024-03-02T12:13:24;2.60;;;2.50;;
323;SDS011;149;51.094;17.002;2024-03-02T12:15:52;5.13;;;3.17;;
323;SDS011;149;51.094;17.002;2024-03-02T12:18:21;3.33;;;3.13;;
323;SDS011;149;51.094;17.002;2024-03-02T12:20:48;3.50;;;3.30;;
323;SDS011;149;51.094;17.002;2024-03-02T12:23:23;5.60;;;3.77;;
323;SDS011;149;51.094;17.002;2024-03-02T12:25:50;5.03;;;4.70;;
323;SDS011;149;51.094;17.002;2024-03-02T12:28:17;1.00;;;1.00;;
323;SDS011;149;51.094;17.002;2024-03-02T12:30:45;2.30;;;2.20;;
323;SDS011;149;51.094;17.002;2024-03-02T12:33:14;3.70;;;3.50;;
323;SDS011;149;51.094;17.002;2024-03-02T12:35:41;2.70;;;2.60;;
323;SDS011;149;51.094;17.002;2024-03-02T12:38:09;2.07;;;1.97;;
323;SDS011;149;51.094;17.002;2024-03-02T12:40:37;2.30;;;2.23;;
323;SDS011;149;51.094;17.002;2024-03-02T12:43:05;1.83;;;1.73;;
323;SDS011;149;51.094;17.002;2024-03-02T12:45:33;2.30;;;2.13;;
323;SDS011;149;51.094;17.002;2024-03-02T12:48:01;2.53;;;2.43;;
323;SDS011;149;51.094;17.002;2024-03-02T12:50:30;2.33;;;2.23;;
323;SDS011;149;51.094;17.002;2024-03-02T12:52:58;2.17;;;2.00;;
323;SDS011;149;51.094;17.002;2024-03-02T12:55:25;7.43;;;5.63;;
323;SDS011;149;51.094;17.002;2024-03-02T12:57:52;2.20;;;2.10;;
323;SDS011;149;51.094;17.002;2024-03-02T13:00:20;9.00;;;4.93;;
323;SDS011;149;51.094;17.002;2024-03-02T13:02:49;4.40;;;2.50;;
323;SDS011;149;51.094;17.002;2024-03-02T13:05:18;3.33;;;2.80;;
323;SDS011;149;51.094;17.002;2024-03-02T13:07:49;4.23;;;3.93;;
323;SDS011;149;51.094;17.002;2024-03-02T13:10:17;3.70;;;3.50;;
323;SDS011;149;51.094;17.002;2024-03-02T13:12:45;2.13;;;1.43;;
323;SDS011;149;51.094;17.002;2024-03-02T13:15:13;4.00;;;3.70;;
323;SDS011;149;51.094;17.002;2024-03-02T13:17:46;2.97;;;2.83;;
323;SDS011;149;51.094;17.002;2024-03-02T13:20:13;2.73;;;2.63;;
323;SDS011;149;51.094;17.002;2024-03-02T13:22:41;2.40;;;2.20;;
323;SDS011;149;51.094;17.002;2024-03-02T13:25:09;3.07;;;2.77;;
323;SDS011;149;51.094;17.002;2024-03-02T13:27:38;3.27;;;3.07;;
323;SDS011;149;51.094;17.002;2024-03-02T13:30:06;4.77;;;4.40;;
323;SDS011;149;51.094;17.002;2024-03-02T13:32:35;2.17;;;1.97;;
323;SDS011;149;51.094;17.002;2024-03-02T13:35:05;3.20;;;3.00;;
323;SDS011;149;51.094;17.002;2024-03-02T13:37:32;3.80;;;3.60;;
323;SDS011;149;51.094;17.002;2024-03-02T13:39:59;2.70;;;2.60;;
323;SDS011;149;51.094;17.002;2024-03-02T13:42:27;2.17;;;1.97;;
323;SDS011;149;51.094;17.002;2024-03-02T13:44:54;6.23;;;2.90;;
323;SDS011;149;51.094;17.002;2024-03-02T13:47:21;3.80;;;3.53;;
323;SDS011;149;51.094;17.002;2024-03-02T13:49:48;12.70;;;1.83;;
323;SDS011;149;51.094;17.002;2024-03-02T13:52:15;3.10;;;3.00;;
323;SDS011;149;51.094;17.002;2024-03-02T13:54:47;9.80;;;3.63;;
323;SDS011;149;51.094;17.002;2024-03-02T13:57:14;7.50;;;4.87;;
323;SDS011;149;51.094;17.002;2024-03-02T13:59:43;1.87;;;1.77;;
323;SDS011;149;51.094;17.002;2024-03-02T14:02:10;1.60;;;1.50;;
323;SDS011;149;51.094;17.002;2024-03-02T14:04:38;2.53;;;2.33;;
323;SDS011;149;51.094;17.002;2024-03-02T14:07:06;3.70;;;2.67;;
323;SDS011;149;51.094;17.002;2024-03-02T14:09:34;2.57;;;2.37;;
323;SDS011;149;51.094;17.002;2024-03-02T14:12:02;3.13;;;3.03;;
323;SDS011;149;51.094;17.002;2024-03-02T14:14:30;4.53;;;3.80;;
323;SDS011;149;51.094;17.002;2024-03-02T14:16:57;2.33;;;2.23;;
323;SDS011;149;51.094;17.002;2024-03-02T14:19:30;3.80;;;2.77;;
323;SDS011;149;51.094;17.002;2024-03-02T14:21:58;3.00;;;2.80;;
323;SDS011;149;51.094;17.002;2024-03-02T14:24:26;1.90;;;1.77;;
323;SDS011;149;51.094;17.002;2024-03-02T14:26:54;2.07;;;1.97;;
323;SDS011;149;51.094;17.002;2024-03-02T14:29:35;1.97;;;1.90;;
323;SDS011;149;51.094;17.002;2024-03-02T14:32:04;4.40;;;4.07;;
323;SDS011;149;51.094;17.002;2024-03-02T14:34:35;3.27;;;3.07;;
323;SDS011;149;51.094;17.002;2024-03-02T14:37:04;2.97;;;2.77;;
323;SDS011;149;51.094;17.002;2024-03-02T14:39:33;2.63;;;2.53;;
323;SDS011;149;51.094;17.002;2024-03-02T14:42:01;3.23;;;3.13;;
323;SDS011;149;51.094;17.002;2024-03-02T14:44:28;1.53;;;1.50;;
323;SDS011;149;51.094;17.002;2024-03-02T14:46:55;1.37;;;1.37;;
323;SDS011;149;51.094;17.002;2024-03-02T14:49:25;5.13;;;4.83;;
323;SDS011;149;51.094;17.002;2024-03-02T14:51:52;4.80;;;4.50;;
323;SDS011;149;51.094;17.002;2024-03-02T14:54:19;3.83;;;3.63;;
323;SDS011;149;51.094;17.002;2024-03-02T14:56:46;5.03;;;4.73;;
323;SDS011;149;51.094;17.002;2024-03-02T14:59:14;3.50;;;3.20;;
323;SDS011;149;51.094;17.002;2024-03-02T15:01:41;2.30;;;2.10;;
323;SDS011;149;51.094;17.002;2024-03-02T15:04:10;3.10;;;3.00;;
323;SDS011;149;51.094;17.002;2024-03-02T15:06:37;2.40;;;2.30;;
323;SDS011;149;51.094;17.002;2024-03-02T15:09:07;2.13;;;2.03;;
323;SDS011;149;51.094;17.002;2024-03-02T15:11:34;2.20;;;2.00;;
323;SDS011;149;51.094;17.002;2024-03-02T15:14:02;3.90;;;3.70;;
323;SDS011;149;51.094;17.002;2024-03-02T15:16:29;3.87;;;3.17;;
323;SDS011;149;51.094;17.002;2024-03-02T15:18:56;3.13;;;2.20;;
323;SDS011;149;51.094;17.002;2024-03-02T15:21:23;4.70;;;4.23;;
323;SDS011;149;51.094;17.002;2024-03-02T15:23:50;2.23;;;2.13;;
323;SDS011;149;51.094;17.002;2024-03-02T15:26:17;4.03;;;3.83;;
323;SDS011;149;51.094;17.002;2024-03-02T15:28:44;4.50;;;4.20;;
323;SDS011;149;51.094;17.002;2024-03-02T15:31:11;3.73;;;3.43;;
323;SDS011;149;51.094;17.002;2024-03-02T15:33:39;5.80;;;4.73;;
323;SDS011;149;51.094;17.002;2024-03-02T15:36:07;5.07;;;4.77;;
323;SDS011;149;51.094;17.002;2024-03-02T15:38:34;4.03;;;3.70;;
323;SDS011;149;51.094;17.002;2024-03-02T15:41:08;4.17;;;3.87;;